createdAt,value
2018-10-05T00:00:30.916Z,1017.12
2018-10-05T00:01:30.951Z,1017.13
2018-10-05T00:02:30.895Z,1017.13
2018-10-05T00:03:30.885Z,1017.16
2018-10-05T00:04:30.901Z,1017.16
2018-10-05T00:05:30.863Z,1017.12
2018-10-05T00:06:30.940Z,1017.16
2018-10-05T00:07:30.857Z,1017.12
2018-10-05T00:08:30.833Z,1017.17
2018-10-05T00:09:30.826Z,1017.11
2018-10-05T00:10:30.806Z,1017.11
2018-10-05T00:11:30.796Z,1017.11
2018-10-05T00:12:30.898Z,1017.07
2018-10-05T00:13:30.790Z,1017.08
2018-10-05T00:14:30.859Z,1017.06
2018-10-05T00:15:30.749Z,1017.03
2018-10-05T00:16:30.772Z,1017.06
2018-10-05T00:17:30.765Z,1017.01
2018-10-05T00:18:30.746Z,1017.04
2018-10-05T00:19:30.720Z,1017.01
2018-10-05T00:20:30.745Z,1016.99
2018-10-05T00:21:30.729Z,1017.02
2018-10-05T00:22:30.675Z,1017.02
2018-10-05T00:23:30.675Z,1017.01
2018-10-05T00:24:30.665Z,1017.01
2018-10-05T00:25:30.649Z,1017.01
2018-10-05T00:26:30.626Z,1017.03
2018-10-05T00:27:30.618Z,1016.99
2018-10-05T00:28:30.603Z,1016.98
2018-10-05T00:29:30.611Z,1017.01
2018-10-05T00:30:30.700Z,1017.02
2018-10-05T00:31:30.591Z,1017.02
2018-10-05T00:32:30.659Z,1016.98
2018-10-05T00:33:30.569Z,1016.99
2018-10-05T00:34:30.539Z,1016.97
2018-10-05T00:35:30.535Z,1016.99
2018-10-05T00:36:39.931Z,1017.00
2018-10-05T00:37:30.541Z,1016.98
2018-10-05T00:38:30.616Z,1016.99
2018-10-05T00:39:30.521Z,1016.98
2018-10-05T00:40:30.592Z,1016.98
2018-10-05T00:41:30.474Z,1016.99
2018-10-05T00:42:30.466Z,1016.98
2018-10-05T00:43:30.456Z,1016.95
2018-10-05T00:44:30.593Z,1016.96
2018-10-05T00:45:30.416Z,1016.94
2018-10-05T00:46:30.405Z,1016.93
2018-10-05T00:47:30.458Z,1016.97
2018-10-05T00:48:30.413Z,1016.89
2018-10-05T00:49:30.403Z,1016.96
2018-10-05T00:50:30.413Z,1016.98
2018-10-05T00:51:30.350Z,1016.93
2018-10-05T00:52:30.474Z,1016.90
2018-10-05T00:53:39.426Z,1016.91
2018-10-05T00:54:30.493Z,1016.90
2018-10-05T00:55:30.340Z,1016.87
2018-10-05T00:56:30.323Z,1016.87
2018-10-05T00:57:30.311Z,1016.84
2018-10-05T00:58:30.285Z,1016.75
2018-10-05T00:59:30.279Z,1016.80
2018-10-05T01:00:30.250Z,1016.78
2018-10-05T01:01:30.256Z,1016.78
2018-10-05T01:02:30.256Z,1016.76
2018-10-05T01:03:30.218Z,1016.74
2018-10-05T01:04:30.224Z,1016.77
2018-10-05T01:05:30.228Z,1016.73
2018-10-05T01:06:30.208Z,1016.70
2018-10-05T01:07:30.185Z,1016.68
2018-10-05T01:08:30.312Z,1016.68
2018-10-05T01:09:30.158Z,1016.66
2018-10-05T01:10:30.169Z,1016.67
2018-10-05T01:11:30.141Z,1016.65
2018-10-05T01:12:30.152Z,1016.69
2018-10-05T01:13:30.102Z,1016.69
2018-10-05T01:14:30.109Z,1016.62
2018-10-05T01:15:30.248Z,1016.63
2018-10-05T01:16:30.072Z,1016.70
2018-10-05T01:17:30.057Z,1016.64
2018-10-05T01:18:30.072Z,1016.68
2018-10-05T01:19:30.035Z,1016.64
2018-10-05T01:20:30.038Z,1016.62
2018-10-05T01:21:30.084Z,1016.64
2018-10-05T01:22:30.026Z,1016.61
2018-10-05T01:23:30.086Z,1016.65
2018-10-05T01:24:30.025Z,1016.64
2018-10-05T01:25:29.971Z,1016.60
2018-10-05T01:26:30.121Z,1016.65
2018-10-05T01:27:29.951Z,1016.60
2018-10-05T01:28:29.949Z,1016.60
2018-10-05T01:29:29.927Z,1016.62
2018-10-05T01:30:29.946Z,1016.59
2018-10-05T01:31:37.887Z,1016.57
2018-10-05T01:32:30.023Z,1016.55
2018-10-05T01:33:29.936Z,1016.55
2018-10-05T01:34:30.024Z,1016.54
2018-10-05T01:35:29.967Z,1016.50
2018-10-05T01:36:29.875Z,1016.57
2018-10-05T01:37:29.837Z,1016.46
2018-10-05T01:38:29.839Z,1016.48
2018-10-05T01:39:29.876Z,1016.46
2018-10-05T01:40:29.802Z,1016.45
2018-10-05T01:41:29.830Z,1016.46
2018-10-05T01:42:29.798Z,1016.45
2018-10-05T01:43:29.863Z,1016.44
2018-10-05T01:44:29.759Z,1016.48
2018-10-05T01:45:29.759Z,1016.45
2018-10-05T01:46:29.799Z,1016.45
2018-10-05T01:47:29.748Z,1016.49
2018-10-05T01:48:38.419Z,1016.48
2018-10-05T01:49:29.820Z,1016.47
2018-10-05T01:50:29.797Z,1016.44
2018-10-05T01:51:29.738Z,1016.46
2018-10-05T01:52:29.700Z,1016.43
2018-10-05T01:53:29.837Z,1016.45
2018-10-05T01:54:29.713Z,1016.43
2018-10-05T01:55:29.638Z,1016.39
2018-10-05T01:56:29.625Z,1016.40
2018-10-05T01:57:29.613Z,1016.38
2018-10-05T01:58:29.636Z,1016.39
2018-10-05T01:59:29.614Z,1016.42
2018-10-05T02:00:29.578Z,1016.38
2018-10-05T02:01:29.631Z,1016.44
2018-10-05T02:02:29.604Z,1016.40
2018-10-05T02:03:29.548Z,1016.37
2018-10-05T02:04:29.559Z,1016.39
2018-10-05T02:05:29.535Z,1016.38
2018-10-05T02:06:37.602Z,1016.41
2018-10-05T02:07:29.516Z,1016.36
2018-10-05T02:08:29.506Z,1016.34
2018-10-05T02:09:29.525Z,1016.35
2018-10-05T02:10:29.583Z,1016.30
2018-10-05T02:11:29.582Z,1016.30
2018-10-05T02:12:29.478Z,1016.28
2018-10-05T02:13:29.434Z,1016.25
2018-10-05T02:14:29.488Z,1016.27
2018-10-05T02:15:29.435Z,1016.27
2018-10-05T02:16:29.401Z,1016.30
2018-10-05T02:17:29.412Z,1016.28
2018-10-05T02:18:29.421Z,1016.25
2018-10-05T02:19:29.367Z,1016.26
2018-10-05T02:20:29.386Z,1016.21
2018-10-05T02:21:29.414Z,1016.22
2018-10-05T02:22:29.333Z,1016.23
2018-10-05T02:23:37.249Z,1016.19
2018-10-05T02:24:29.323Z,1016.25
2018-10-05T02:25:29.337Z,1016.21
2018-10-05T02:26:29.435Z,1016.16
2018-10-05T02:27:29.326Z,1016.17
2018-10-05T02:28:29.310Z,1016.09
2018-10-05T02:29:29.256Z,1016.15
2018-10-05T02:30:29.274Z,1016.09
2018-10-05T02:31:29.232Z,1016.05
2018-10-05T02:32:29.227Z,1016.06
2018-10-05T02:33:29.267Z,1016.00
2018-10-05T02:34:29.199Z,1015.97
2018-10-05T02:35:29.224Z,1015.96
2018-10-05T02:36:29.180Z,1015.97
2018-10-05T02:37:29.165Z,1015.96
2018-10-05T02:38:29.188Z,1015.99
2018-10-05T02:39:29.157Z,1015.96
2018-10-05T02:40:29.136Z,1015.99
2018-10-05T02:41:29.219Z,1015.95
2018-10-05T02:42:29.112Z,1015.95
2018-10-05T02:43:29.100Z,1015.96
2018-10-05T02:44:29.087Z,1015.95
2018-10-05T02:45:29.159Z,1015.94
2018-10-05T02:46:29.064Z,1015.95
2018-10-05T02:47:29.157Z,1015.92
2018-10-05T02:48:29.093Z,1015.92
2018-10-05T02:49:29.034Z,1015.98
2018-10-05T02:50:29.023Z,1015.98
2018-10-05T02:51:29.111Z,1015.92
2018-10-05T02:52:29.001Z,1015.90
2018-10-05T02:53:29.063Z,1015.86
2018-10-05T02:54:28.979Z,1015.89
2018-10-05T02:55:28.977Z,1015.87
2018-10-05T02:56:28.957Z,1015.84
2018-10-05T02:57:28.943Z,1015.83
2018-10-05T02:58:28.935Z,1015.85
2018-10-05T02:59:28.934Z,1015.88
2018-10-05T03:00:28.996Z,1015.83
2018-10-05T03:01:37.905Z,1015.85
2018-10-05T03:02:28.890Z,1015.81
2018-10-05T03:03:28.915Z,1015.83
2018-10-05T03:04:28.928Z,1015.82
2018-10-05T03:05:28.990Z,1015.82
2018-10-05T03:06:28.876Z,1015.83
2018-10-05T03:07:28.886Z,1015.84
2018-10-05T03:08:28.823Z,1015.78
2018-10-05T03:09:28.811Z,1015.76
2018-10-05T03:10:28.912Z,1015.81
2018-10-05T03:11:28.787Z,1015.80
2018-10-05T03:12:28.776Z,1015.76
2018-10-05T03:13:28.790Z,1015.75
2018-10-05T03:14:28.754Z,1015.73
2018-10-05T03:15:28.816Z,1015.73
2018-10-05T03:16:28.793Z,1015.71
2018-10-05T03:17:28.726Z,1015.73
2018-10-05T03:18:28.709Z,1015.67
2018-10-05T03:19:36.779Z,1015.68
2018-10-05T03:20:28.858Z,1015.69
2018-10-05T03:21:28.709Z,1015.70
2018-10-05T03:22:28.821Z,1015.67
2018-10-05T03:23:28.690Z,1015.64
2018-10-05T03:24:28.645Z,1015.66
2018-10-05T03:25:28.657Z,1015.62
2018-10-05T03:26:28.661Z,1015.62
2018-10-05T03:27:28.773Z,1015.65
2018-10-05T03:28:28.754Z,1015.63
2018-10-05T03:29:28.589Z,1015.63
2018-10-05T03:30:28.605Z,1015.59
2018-10-05T03:31:28.571Z,1015.59
2018-10-05T03:32:28.561Z,1015.58
2018-10-05T03:33:28.568Z,1015.59
2018-10-05T03:34:28.548Z,1015.57
2018-10-05T03:35:28.521Z,1015.54
2018-10-05T03:36:28.507Z,1015.54
2018-10-05T03:37:36.651Z,1015.50
2018-10-05T03:38:28.507Z,1015.46
2018-10-05T03:39:28.503Z,1015.48
2018-10-05T03:40:28.591Z,1015.45
2018-10-05T03:41:28.602Z,1015.37
2018-10-05T03:42:28.489Z,1015.41
2018-10-05T03:43:28.456Z,1015.39
2018-10-05T03:44:28.421Z,1015.36
2018-10-05T03:45:28.456Z,1015.31
2018-10-05T03:46:28.404Z,1015.32
2018-10-05T03:47:28.415Z,1015.34
2018-10-05T03:48:28.419Z,1015.36
2018-10-05T03:49:28.411Z,1015.31
2018-10-05T03:50:28.355Z,1015.30
2018-10-05T03:51:28.364Z,1015.25
2018-10-05T03:52:28.402Z,1015.25
2018-10-05T03:53:28.320Z,1015.20
2018-10-05T03:54:36.372Z,1015.25
2018-10-05T03:55:28.318Z,1015.22
2018-10-05T03:56:28.317Z,1015.23
2018-10-05T03:57:28.303Z,1015.20
2018-10-05T03:58:28.428Z,1015.25
2018-10-05T03:59:28.310Z,1015.24
2018-10-05T04:00:28.248Z,1015.21
2018-10-05T04:01:28.229Z,1015.23
2018-10-05T04:02:28.272Z,1015.21
2018-10-05T04:03:28.284Z,1015.19
2018-10-05T04:04:28.235Z,1015.22
2018-10-05T04:05:28.285Z,1015.22
2018-10-05T04:06:28.226Z,1015.24
2018-10-05T04:07:28.232Z,1015.24
2018-10-05T04:08:28.158Z,1015.26
2018-10-05T04:09:28.145Z,1015.26
2018-10-05T04:10:28.144Z,1015.26
2018-10-05T04:11:28.139Z,1015.27
2018-10-05T04:12:28.112Z,1015.28
2018-10-05T04:13:28.099Z,1015.28
2018-10-05T04:14:28.089Z,1015.29
2018-10-05T04:15:28.110Z,1015.27
2018-10-05T04:16:28.066Z,1015.27
2018-10-05T04:17:28.076Z,1015.28
2018-10-05T04:18:28.092Z,1015.24
2018-10-05T04:19:28.037Z,1015.25
2018-10-05T04:20:28.022Z,1015.28
2018-10-05T04:21:28.009Z,1015.24
2018-10-05T04:22:28.001Z,1015.25
2018-10-05T04:23:28.005Z,1015.26
2018-10-05T04:24:27.978Z,1015.26
2018-10-05T04:25:27.995Z,1015.28
2018-10-05T04:26:27.955Z,1015.24
2018-10-05T04:27:27.943Z,1015.26
2018-10-05T04:28:27.962Z,1015.26
2018-10-05T04:29:28.044Z,1015.26
2018-10-05T04:30:27.913Z,1015.24
2018-10-05T04:31:35.536Z,1015.23
2018-10-05T04:32:27.905Z,1015.20
2018-10-05T04:33:27.893Z,1015.21
2018-10-05T04:34:27.874Z,1015.20
2018-10-05T04:35:27.906Z,1015.22
2018-10-05T04:36:27.849Z,1015.22
2018-10-05T04:37:27.873Z,1015.22
2018-10-05T04:38:27.942Z,1015.22
2018-10-05T04:39:27.879Z,1015.22
2018-10-05T04:40:27.829Z,1015.21
2018-10-05T04:41:27.807Z,1015.19
2018-10-05T04:42:27.816Z,1015.20
2018-10-05T04:43:27.774Z,1015.19
2018-10-05T04:44:27.755Z,1015.21
2018-10-05T04:45:27.769Z,1015.17
2018-10-05T04:46:27.764Z,1015.19
2018-10-05T04:47:27.743Z,1015.14
2018-10-05T04:48:35.624Z,1015.15
2018-10-05T04:49:27.739Z,1015.13
2018-10-05T04:50:27.711Z,1015.18
2018-10-05T04:51:27.825Z,1015.17
2018-10-05T04:52:27.690Z,1015.18
2018-10-05T04:53:27.675Z,1015.17
2018-10-05T04:54:27.682Z,1015.17
2018-10-05T04:55:27.769Z,1015.17
2018-10-05T04:56:27.754Z,1015.16
2018-10-05T04:57:27.632Z,1015.15
2018-10-05T04:58:27.602Z,1015.14
2018-10-05T04:59:27.671Z,1015.14
2018-10-05T05:00:27.582Z,1015.13
2018-10-05T05:01:27.569Z,1015.14
2018-10-05T05:02:27.571Z,1015.13
2018-10-05T05:03:27.581Z,1015.11
2018-10-05T05:04:27.534Z,1015.07
2018-10-05T05:05:27.541Z,1015.07
2018-10-05T05:06:27.518Z,1015.06
2018-10-05T05:07:35.459Z,1015.08
2018-10-05T05:08:27.601Z,1015.08
2018-10-05T05:09:27.483Z,1015.08
2018-10-05T05:10:27.493Z,1015.04
2018-10-05T05:11:27.533Z,1015.02
2018-10-05T05:12:27.563Z,1015.07
2018-10-05T05:13:27.442Z,1015.02
2018-10-05T05:14:27.428Z,1015.04
2018-10-05T05:15:27.428Z,1015.04
2018-10-05T05:16:27.402Z,1015.05
2018-10-05T05:17:27.501Z,1015.05
2018-10-05T05:18:27.384Z,1015.03
2018-10-05T05:19:27.405Z,1015.04
2018-10-05T05:20:27.383Z,1015.02
2018-10-05T05:21:27.347Z,1015.00
2018-10-05T05:22:27.339Z,1014.99
2018-10-05T05:23:27.378Z,1014.99
2018-10-05T05:24:27.313Z,1015.00
2018-10-05T05:25:27.307Z,1014.94
2018-10-05T05:26:27.293Z,1014.96
2018-10-05T05:27:27.328Z,1014.93
2018-10-05T05:28:27.269Z,1014.94
2018-10-05T05:29:27.315Z,1014.94
2018-10-05T05:30:27.328Z,1014.96
2018-10-05T05:31:27.271Z,1014.96
2018-10-05T05:32:27.227Z,1014.93
2018-10-05T05:33:27.321Z,1014.96
2018-10-05T05:34:27.247Z,1014.98
2018-10-05T05:35:27.211Z,1014.98
2018-10-05T05:36:27.202Z,1014.97
2018-10-05T05:37:27.172Z,1014.97
2018-10-05T05:38:27.160Z,1014.96
2018-10-05T05:39:27.155Z,1014.97
2018-10-05T05:40:27.151Z,1014.96
2018-10-05T05:41:27.150Z,1014.94
2018-10-05T05:42:27.173Z,1014.96
2018-10-05T05:43:35.261Z,1014.96
2018-10-05T05:44:27.205Z,1014.93
2018-10-05T05:45:27.083Z,1014.98
2018-10-05T05:46:27.106Z,1014.96
2018-10-05T05:47:27.078Z,1014.99
2018-10-05T05:48:27.049Z,1015.02
2018-10-05T05:49:27.091Z,1015.06
2018-10-05T05:50:27.080Z,1015.05
2018-10-05T05:51:27.092Z,1015.04
2018-10-05T05:52:27.008Z,1015.04
2018-10-05T05:53:27.041Z,1015.06
2018-10-05T05:54:27.038Z,1015.06
2018-10-05T05:55:26.971Z,1015.05
2018-10-05T05:56:26.991Z,1015.06
2018-10-05T05:57:27.055Z,1015.03
2018-10-05T05:58:26.939Z,1015.08
2018-10-05T05:59:26.943Z,1015.11
2018-10-05T06:00:26.914Z,1015.09
2018-10-05T06:01:34.803Z,1015.10
2018-10-05T06:02:26.917Z,1015.11
2018-10-05T06:03:26.987Z,1015.09
2018-10-05T06:04:27.051Z,1015.11
2018-10-05T06:05:26.865Z,1015.05
2018-10-05T06:06:26.854Z,1015.01
2018-10-05T06:07:26.848Z,1015.08
2018-10-05T06:08:26.828Z,1015.01
2018-10-05T06:09:26.815Z,1015.07
2018-10-05T06:10:26.863Z,1015.07
2018-10-05T06:11:26.837Z,1015.11
2018-10-05T06:12:26.850Z,1015.09
2018-10-05T06:13:26.773Z,1015.15
2018-10-05T06:14:26.780Z,1015.09
2018-10-05T06:15:26.831Z,1015.14
2018-10-05T06:16:26.848Z,1015.12
2018-10-05T06:17:26.729Z,1015.10
2018-10-05T06:18:26.816Z,1015.09
2018-10-05T06:19:26.749Z,1015.08
2018-10-05T06:20:34.379Z,1015.09
2018-10-05T06:21:26.772Z,1015.07
2018-10-05T06:22:26.827Z,1015.07
2018-10-05T06:23:26.686Z,1015.10
2018-10-05T06:24:26.651Z,1015.11
2018-10-05T06:25:26.782Z,1015.08
2018-10-05T06:26:26.700Z,1015.10
2018-10-05T06:27:26.683Z,1015.11
2018-10-05T06:28:26.626Z,1015.09
2018-10-05T06:29:26.626Z,1015.11
2018-10-05T06:30:26.598Z,1015.10
2018-10-05T06:31:26.572Z,1015.14
2018-10-05T06:32:26.561Z,1015.17
2018-10-05T06:33:26.566Z,1015.15
2018-10-05T06:34:26.560Z,1015.17
2018-10-05T06:35:26.527Z,1015.17
2018-10-05T06:36:26.518Z,1015.14
2018-10-05T06:37:26.509Z,1015.15
2018-10-05T06:38:35.136Z,1015.15
2018-10-05T06:39:26.503Z,1015.12
2018-10-05T06:40:26.492Z,1015.08
2018-10-05T06:41:26.485Z,1015.10
2018-10-05T06:42:26.558Z,1015.09
2018-10-05T06:43:26.548Z,1015.08
2018-10-05T06:44:26.427Z,1015.04
2018-10-05T06:45:26.443Z,1015.10
2018-10-05T06:46:26.487Z,1015.09
2018-10-05T06:47:26.397Z,1015.05
2018-10-05T06:48:26.387Z,1015.06
2018-10-05T06:49:26.414Z,1015.08
2018-10-05T06:50:26.361Z,1015.04
2018-10-05T06:51:26.391Z,1015.06
2018-10-05T06:52:26.422Z,1015.07
2018-10-05T06:53:26.334Z,1015.09
2018-10-05T06:54:26.321Z,1015.10
2018-10-05T06:55:34.540Z,1015.08
2018-10-05T06:56:26.342Z,1015.13
2018-10-05T06:57:26.289Z,1015.09
2018-10-05T06:58:26.329Z,1015.08
2018-10-05T06:59:26.405Z,1015.11
2018-10-05T07:00:26.320Z,1015.09
2018-10-05T07:01:26.266Z,1015.09
2018-10-05T07:02:26.236Z,1015.04
2018-10-05T07:03:26.252Z,1015.09
2018-10-05T07:04:26.598Z,1015.04
2018-10-05T07:05:26.331Z,1015.00
2018-10-05T07:06:26.232Z,1015.08
2018-10-05T07:07:26.220Z,1015.03
2018-10-05T07:08:26.191Z,1015.06
2018-10-05T07:09:26.264Z,1015.01
2018-10-05T07:10:26.157Z,1015.01
2018-10-05T07:11:26.265Z,1015.02
2018-10-05T07:12:26.164Z,1015.00
2018-10-05T07:13:26.107Z,1015.05
2018-10-05T07:14:34.249Z,1015.03
2018-10-05T07:15:26.123Z,1015.00
2018-10-05T07:16:26.095Z,1015.00
2018-10-05T07:17:26.129Z,1015.02
2018-10-05T07:18:26.054Z,1014.99
2018-10-05T07:19:26.040Z,1014.94
2018-10-05T07:20:26.170Z,1014.96
2018-10-05T07:21:26.092Z,1014.93
2018-10-05T07:22:26.328Z,1014.95
2018-10-05T07:23:26.089Z,1014.96
2018-10-05T07:24:26.023Z,1014.99
2018-10-05T07:25:25.996Z,1014.98
2018-10-05T07:26:26.010Z,1014.98
2018-10-05T07:27:26.042Z,1014.97
2018-10-05T07:28:25.987Z,1014.98
2018-10-05T07:29:25.949Z,1014.98
2018-10-05T07:30:25.956Z,1015.00
2018-10-05T07:31:25.907Z,1015.07
2018-10-05T07:32:25.897Z,1015.02
2018-10-05T07:33:25.886Z,1015.06
2018-10-05T07:34:25.872Z,1015.03
2018-10-05T07:35:25.937Z,1014.97
2018-10-05T07:36:25.849Z,1015.01
2018-10-05T07:37:25.906Z,1014.97
2018-10-05T07:38:25.849Z,1015.00
2018-10-05T07:39:25.845Z,1015.04
2018-10-05T07:40:25.822Z,1015.06
2018-10-05T07:41:25.809Z,1015.12
2018-10-05T07:42:25.785Z,1015.15
2018-10-05T07:43:26.008Z,1015.26
2018-10-05T07:44:25.762Z,1015.23
2018-10-05T07:45:25.786Z,1015.08
2018-10-05T07:46:25.740Z,1015.03
2018-10-05T07:47:25.727Z,1015.14
2018-10-05T07:48:25.715Z,1015.15
2018-10-05T07:49:25.762Z,1015.13
2018-10-05T07:50:25.695Z,1015.12
2018-10-05T07:51:25.760Z,1015.08
2018-10-05T07:52:25.673Z,1014.95
2018-10-05T07:53:33.365Z,1014.80
2018-10-05T07:54:33.772Z,1014.82
2018-10-05T07:55:25.708Z,1014.76
2018-10-05T07:56:25.681Z,1014.71
2018-10-05T07:57:25.781Z,1014.72
2018-10-05T07:58:25.642Z,1014.74
2018-10-05T07:59:25.602Z,1014.75
2018-10-05T08:00:25.632Z,1014.77
2018-10-05T08:01:25.577Z,1014.75
2018-10-05T08:02:25.583Z,1014.74
2018-10-05T08:03:25.621Z,1014.71
2018-10-05T08:04:25.774Z,1014.75
2018-10-05T08:05:25.817Z,1014.75
2018-10-05T08:06:25.648Z,1014.75
2018-10-05T08:07:25.512Z,1014.77
2018-10-05T08:08:25.541Z,1014.76
2018-10-05T08:09:25.570Z,1014.80
2018-10-05T08:10:25.478Z,1014.82
2018-10-05T08:11:25.505Z,1014.81
2018-10-05T08:12:25.452Z,1014.81
2018-10-05T08:13:33.649Z,1014.79
2018-10-05T08:14:25.483Z,1014.76
2018-10-05T08:15:25.436Z,1014.80
2018-10-05T08:16:25.476Z,1014.79
2018-10-05T08:17:25.427Z,1014.77
2018-10-05T08:18:25.409Z,1014.74
2018-10-05T08:19:25.412Z,1014.73
2018-10-05T08:20:25.780Z,1014.75
2018-10-05T08:21:25.386Z,1014.72
2018-10-05T08:22:25.547Z,1014.76
2018-10-05T08:23:25.439Z,1014.77
2018-10-05T08:24:25.541Z,1014.78
2018-10-05T08:25:25.396Z,1014.77
2018-10-05T08:26:25.466Z,1014.76
2018-10-05T08:27:25.292Z,1014.69
2018-10-05T08:28:25.277Z,1014.73
2018-10-05T08:29:25.297Z,1014.71
2018-10-05T08:30:25.645Z,1014.75
2018-10-05T08:31:25.240Z,1014.70
2018-10-05T08:32:34.566Z,1014.71
2018-10-05T08:33:25.463Z,1014.67
2018-10-05T08:34:25.258Z,1014.71
2018-10-05T08:35:25.270Z,1014.69
2018-10-05T08:36:25.516Z,1014.70
2018-10-05T08:37:25.278Z,1014.62
2018-10-05T08:38:25.284Z,1014.65
2018-10-05T08:39:25.172Z,1014.65
2018-10-05T08:40:25.185Z,1014.64
2018-10-05T08:41:25.129Z,1014.58
2018-10-05T08:42:25.172Z,1014.60
2018-10-05T08:43:25.109Z,1014.59
2018-10-05T08:44:25.232Z,1014.61
2018-10-05T08:45:25.090Z,1014.57
2018-10-05T08:46:25.074Z,1014.61
2018-10-05T08:47:25.066Z,1014.59
2018-10-05T08:48:25.059Z,1014.67
2018-10-05T08:49:25.095Z,1014.63
2018-10-05T08:50:25.050Z,1014.63
2018-10-05T08:51:25.231Z,1014.63
2018-10-05T08:52:33.225Z,1014.63
2018-10-05T08:53:25.064Z,1014.61
2018-10-05T08:54:25.017Z,1014.59
2018-10-05T08:55:25.992Z,1014.58
2018-10-05T08:56:25.290Z,1014.55
2018-10-05T08:57:25.229Z,1014.54
2018-10-05T08:58:24.997Z,1014.59
2018-10-05T08:59:24.930Z,1014.59
2018-10-05T09:00:25.004Z,1014.59
2018-10-05T09:01:24.916Z,1014.55
2018-10-05T09:02:24.916Z,1014.53
2018-10-05T09:03:24.939Z,1014.57
2018-10-05T09:04:24.883Z,1014.53
2018-10-05T09:05:25.039Z,1014.51
2018-10-05T09:06:24.855Z,1014.50
2018-10-05T09:07:24.941Z,1014.49
2018-10-05T09:08:24.850Z,1014.50
2018-10-05T09:09:24.915Z,1014.52
2018-10-05T09:10:24.939Z,1014.48
2018-10-05T09:11:32.903Z,1014.46
2018-10-05T09:12:24.847Z,1014.44
2018-10-05T09:13:24.792Z,1014.39
2018-10-05T09:14:24.815Z,1014.37
2018-10-05T09:15:24.890Z,1014.38
2018-10-05T09:16:24.851Z,1014.33
2018-10-05T09:17:24.782Z,1014.34
2018-10-05T09:18:24.724Z,1014.34
2018-10-05T09:19:24.741Z,1014.29
2018-10-05T09:20:24.798Z,1014.29
2018-10-05T09:21:24.690Z,1014.29
2018-10-05T09:22:24.676Z,1014.26
2018-10-05T09:23:24.706Z,1014.29
2018-10-05T09:24:24.669Z,1014.26
2018-10-05T09:25:24.645Z,1014.27
2018-10-05T09:26:24.679Z,1014.27
2018-10-05T09:27:24.635Z,1014.26
2018-10-05T09:28:24.714Z,1014.25
2018-10-05T09:29:24.604Z,1014.26
2018-10-05T09:30:24.589Z,1014.29
2018-10-05T09:31:32.332Z,1014.26
2018-10-05T09:32:24.834Z,1014.30
2018-10-05T09:33:24.590Z,1014.30
2018-10-05T09:34:24.577Z,1014.27
2018-10-05T09:35:24.536Z,1014.28
2018-10-05T09:36:24.527Z,1014.26
2018-10-05T09:37:24.564Z,1014.24
2018-10-05T09:38:24.516Z,1014.28
2018-10-05T09:39:24.516Z,1014.26
2018-10-05T09:40:24.745Z,1014.26
2018-10-05T09:41:24.529Z,1014.26
2018-10-05T09:42:24.577Z,1014.23
2018-10-05T09:43:24.463Z,1014.17
2018-10-05T09:44:24.458Z,1014.16
2018-10-05T09:45:24.558Z,1014.07
2018-10-05T09:46:24.457Z,1014.05
2018-10-05T09:47:24.459Z,1014.04
2018-10-05T09:48:24.463Z,1014.03
2018-10-05T09:49:24.487Z,1014.01
2018-10-05T09:50:32.434Z,1013.96
2018-10-05T09:51:24.478Z,1013.99
2018-10-05T09:52:24.484Z,1013.96
2018-10-05T09:53:24.489Z,1013.98
2018-10-05T09:54:24.475Z,1013.93
2018-10-05T09:55:24.312Z,1013.92
2018-10-05T09:56:24.328Z,1013.89
2018-10-05T09:57:24.291Z,1013.90
2018-10-05T09:58:24.278Z,1013.85
2018-10-05T09:59:24.315Z,1013.81
2018-10-05T10:00:24.270Z,1013.77
2018-10-05T10:01:24.303Z,1013.75
2018-10-05T10:02:24.240Z,1013.79
2018-10-05T10:03:24.230Z,1013.73
2018-10-05T10:04:24.248Z,1013.72
2018-10-05T10:05:24.202Z,1013.73
2018-10-05T10:06:24.301Z,1013.65
2018-10-05T10:07:24.178Z,1013.57
2018-10-05T10:08:24.202Z,1013.60
2018-10-05T10:09:32.244Z,1013.52
2018-10-05T10:10:24.217Z,1013.50
2018-10-05T10:11:24.222Z,1013.56
2018-10-05T10:12:24.208Z,1013.57
2018-10-05T10:13:24.111Z,1013.59
2018-10-05T10:14:24.153Z,1013.53
2018-10-05T10:15:24.091Z,1013.59
2018-10-05T10:16:24.077Z,1013.57
2018-10-05T10:17:24.108Z,1013.45
2018-10-05T10:18:24.055Z,1013.48
2018-10-05T10:19:24.065Z,1013.51
2018-10-05T10:20:24.052Z,1013.49
2018-10-05T10:21:24.022Z,1013.48
2018-10-05T10:22:24.013Z,1013.49
2018-10-05T10:23:23.999Z,1013.42
2018-10-05T10:24:23.995Z,1013.42
2018-10-05T10:25:24.012Z,1013.50
2018-10-05T10:26:23.988Z,1013.43
2018-10-05T10:27:23.957Z,1013.46
2018-10-05T10:28:24.057Z,1013.51
2018-10-05T10:29:31.986Z,1013.47
2018-10-05T10:30:23.946Z,1013.44
2018-10-05T10:31:24.008Z,1013.41
2018-10-05T10:32:23.921Z,1013.40
2018-10-05T10:33:23.912Z,1013.41
2018-10-05T10:34:24.021Z,1013.39
2018-10-05T10:35:23.868Z,1013.31
2018-10-05T10:36:23.858Z,1013.32
2018-10-05T10:37:23.867Z,1013.36
2018-10-05T10:38:24.023Z,1013.30
2018-10-05T10:39:24.053Z,1013.25
2018-10-05T10:40:23.879Z,1013.26
2018-10-05T10:41:23.928Z,1013.26
2018-10-05T10:42:23.802Z,1013.23
2018-10-05T10:43:23.802Z,1013.27
2018-10-05T10:44:23.828Z,1013.24
2018-10-05T10:45:23.791Z,1013.24
2018-10-05T10:46:23.747Z,1013.21
2018-10-05T10:47:23.769Z,1013.21
2018-10-05T10:48:23.728Z,1013.22
2018-10-05T10:49:33.274Z,1013.23
2018-10-05T10:50:23.751Z,1013.20
2018-10-05T10:51:23.878Z,1013.18
2018-10-05T10:52:23.778Z,1013.19
2018-10-05T10:53:23.876Z,1013.15
2018-10-05T10:54:23.810Z,1013.12
2018-10-05T10:55:23.665Z,1013.12
2018-10-05T10:56:23.738Z,1013.07
2018-10-05T10:57:23.628Z,1013.05
2018-10-05T10:58:23.619Z,1012.97
2018-10-05T10:59:23.719Z,1013.01
2018-10-05T11:00:23.597Z,1012.97
2018-10-05T11:01:23.588Z,1012.97
2018-10-05T11:02:23.597Z,1012.91
2018-10-05T11:03:23.629Z,1012.89
2018-10-05T11:04:23.596Z,1012.85
2018-10-05T11:05:23.558Z,1012.87
2018-10-05T11:06:23.669Z,1012.83
2018-10-05T11:07:23.569Z,1012.88
2018-10-05T11:08:31.560Z,1012.86
2018-10-05T11:09:23.556Z,1012.84
2018-10-05T11:10:23.593Z,1012.80
2018-10-05T11:11:23.559Z,1012.79
2018-10-05T11:12:23.543Z,1012.79
2018-10-05T11:13:23.567Z,1012.71
2018-10-05T11:14:23.455Z,1012.68
2018-10-05T11:15:23.467Z,1012.70
2018-10-05T11:16:23.418Z,1012.69
2018-10-05T11:17:23.424Z,1012.66
2018-10-05T11:18:23.436Z,1012.69
2018-10-05T11:19:23.387Z,1012.69
2018-10-05T11:20:23.373Z,1012.69
2018-10-05T11:21:23.365Z,1012.66
2018-10-05T11:22:23.353Z,1012.65
2018-10-05T11:23:23.494Z,1012.63
2018-10-05T11:24:23.374Z,1012.62
2018-10-05T11:25:23.326Z,1012.59
2018-10-05T11:26:23.311Z,1012.61
2018-10-05T11:27:23.300Z,1012.61
2018-10-05T11:28:32.785Z,1012.57
2018-10-05T11:29:23.325Z,1012.63
2018-10-05T11:30:23.266Z,1012.58
2018-10-05T11:31:23.302Z,1012.58
2018-10-05T11:32:23.298Z,1012.56
2018-10-05T11:33:23.392Z,1012.50
2018-10-05T11:34:23.295Z,1012.51
2018-10-05T11:35:23.209Z,1012.47
2018-10-05T11:36:23.198Z,1012.41
2018-10-05T11:37:23.307Z,1012.41
2018-10-05T11:38:23.178Z,1012.38
2018-10-05T11:39:23.164Z,1012.38
2018-10-05T11:40:23.199Z,1012.40
2018-10-05T11:41:23.168Z,1012.38
2018-10-05T11:42:23.131Z,1012.34
2018-10-05T11:43:23.218Z,1012.34
2018-10-05T11:44:23.111Z,1012.30
2018-10-05T11:45:23.097Z,1012.26
2018-10-05T11:46:23.115Z,1012.25
2018-10-05T11:47:31.823Z,1012.22
2018-10-05T11:48:32.337Z,1012.22
2018-10-05T11:49:23.100Z,1012.20
2018-10-05T11:50:23.045Z,1012.19
2018-10-05T11:51:23.075Z,1012.15
2018-10-05T11:52:23.136Z,1012.08
2018-10-05T11:53:23.090Z,1012.07
2018-10-05T11:54:23.110Z,1012.05
2018-10-05T11:55:22.990Z,1012.06
2018-10-05T11:56:22.990Z,1011.97
2018-10-05T11:57:22.994Z,1011.96
2018-10-05T11:58:23.061Z,1011.92
2018-10-05T11:59:22.943Z,1011.91
2018-10-05T12:00:22.964Z,1011.91
2018-10-05T12:01:22.920Z,1011.92
2018-10-05T12:02:22.956Z,1011.89
2018-10-05T12:03:23.148Z,1011.85
2018-10-05T12:04:22.889Z,1011.87
2018-10-05T12:05:22.946Z,1011.87